Betagas — V2KA8 — position and weather

sailwx.info

Track history (hours):
 
Tides and Currents Weather Stations Pressure Air Temp Water Temp Dewpoint Dewpoint Depression Visibility Wind Speed Wind Dir Waves Ship Positions

Betagas

Last reported at 2016-Dec-06 09:34 UTC. Time now 2016-Dec-06 10:14 UTC.
Position N 47°25' W 004°02'.

Length 114.6 m; beam 15.7 m; draft 7.4 m.

Type: Tanker. MMSI: 304050636.

Date/timePositionNaut miles runAvg speedWind from/ knotsBaromVisibWave heightAir tempDewpointWater temp
2016-Dec-06 09:34N 47°25' W 004°02'1514.9
2016-Dec-06 08:33N 47°18' W 003°42'1514.7
2016-Dec-06 07:34N 47°11' W 003°23'1514.6
2016-Dec-06 06:33N 47°06' W 003°03'1514.5
2016-Dec-06 05:33N 47°01' W 002°43'1313.5
2016-Dec-06 04:33N 47°06' W 002°24'1211.9
2016-Dec-06 03:33N 47°15' W 002°13'7 6.4
2016-Dec-06 02:30N 47°18' W 002°04'0 0.0
2016-Dec-06 01:33N 47°18' W 002°04'0 0.0
2016-Dec-06 00:33N 47°18' W 002°04'0 0.0
2016-Dec-05 23:33N 47°18' W 002°04'0 0.0
2016-Dec-05 22:33N 47°18' W 002°04'0 0.0
2016-Dec-05 21:33N 47°18' W 002°04'0 0.0
2016-Dec-05 20:33N 47°18' W 002°04'0 0.0
2016-Dec-05 18:33N 47°18' W 002°04'0 0.0
2016-Dec-05 17:33N 47°18' W 002°04'0 0.0
2016-Dec-05 16:33N 47°18' W 002°04'0 0.0
2016-Dec-05 15:33N 47°18' W 002°04'0 0.0
2016-Dec-05 14:30N 47°18' W 002°04'0 0.0
2016-Dec-05 13:30N 47°18' W 002°04'0 0.0
2016-Dec-05 12:30N 47°18' W 002°04'0 0.0
2016-Dec-05 11:27N 47°18' W 002°04'0 0.0
2016-Dec-05 10:33N 47°18' W 002°04'0 0.0
2016-Dec-05 09:30N 47°18' W 002°04'0 0.0
2016-Dec-05 08:33N 47°18' W 002°04'0 0.0
2016-Dec-05 07:33N 47°18' W 002°04'0 0.0
2016-Dec-05 06:24N 47°18' W 002°04'0 0.0
2016-Dec-05 05:33N 47°18' W 002°04'0 0.0
2016-Dec-05 04:33N 47°18' W 002°04'0 0.0
2016-Dec-05 03:30N 47°18' W 002°04'0 0.0
2016-Dec-05 02:33N 47°18' W 002°04'0 0.0
2016-Dec-05 01:33N 47°18' W 002°04'0 0.0
2016-Dec-05 00:33N 47°18' W 002°04'0 0.0
2016-Dec-04 23:33N 47°18' W 002°04'0 0.0
2016-Dec-04 22:33N 47°18' W 002°04'0 0.0
2016-Dec-04 21:30N 47°18' W 002°04'0 0.0
2016-Dec-04 20:30N 47°18' W 002°04'0 0.0
2016-Dec-04 19:33N 47°18' W 002°04'0 0.4
2016-Dec-04 18:33N 47°18' W 002°04'9 9.5
2016-Dec-04 17:34N 47°13' W 002°16'9 9.4
2016-Dec-04 16:33N 47°06' W 002°25'6 5.7
2016-Dec-04 15:33N 47°02' W 002°31'6 6.3
2016-Dec-04 14:33N 46°60' W 002°40'7 6.9
2016-Dec-04 13:33N 47°02' W 002°50'1110.7
2016-Dec-04 12:33N 47°06' W 003°04'1312.8
2016-Dec-04 11:33N 47°11' W 003°21'1312.7
2016-Dec-04 10:33N 47°17' W 003°38'1313.1
2016-Dec-04 09:33N 47°23' W 003°55'1313.0
2016-Dec-04 08:32N 47°29' W 004°13'1313.0
2016-Dec-04 07:30N 47°35' W 004°30'1213.0
2016-Dec-04 06:33N 47°42' W 004°46'1312.9
2016-Dec-04 05:33N 47°50' W 005°00'1312.9
2016-Dec-04 04:32N 48°00' W 005°12'1312.8
2016-Dec-04 03:32N 48°10' W 005°25'11210.9
2016-Dec-03 17:16N 49°42' W 003°47'1114.8
2016-Dec-03 16:33N 49°47' W 003°33'1615.9
2016-Dec-03 15:33N 49°55' W 003°12'1716.6
2016-Dec-03 14:33N 50°01' W 002°48'3216.0
2016-Dec-03 12:33N 50°09' W 001°59'1513.7
2016-Dec-03 11:27N 50°14' W 001°37'1112.6
2016-Dec-03 10:33N 50°17' W 001°20'3912.9
2016-Dec-03 07:33N 50°27' W 000°21'1515.0
2016-Dec-03 06:33N 50°31' E 000°02'1716.4
2016-Dec-03 05:30N 50°35' E 000°28'3115.9
2016-Dec-03 03:31N 50°52' E 001°10'1313.8
2016-Dec-03 02:33N 51°01' E 001°26'1313.3
2016-Dec-03 01:33N 51°11' E 001°40'1414.3
2016-Dec-03 00:33N 51°23' E 001°53'1716.6
2016-Dec-02 23:33N 51°37' E 002°07'3215.8
2016-Dec-02 21:33N 52°08' E 002°11'3716.8
2016-Dec-02 19:20N 52°45' E 001°60'1215.5
2016-Dec-02 18:33N 52°52' E 001°43'1515.0
2016-Dec-02 17:34N 53°02' E 001°26'7214.2
2016-Dec-02 12:28N 54°03' E 000°21'1213.6
2016-Dec-02 11:34N 54°14' E 000°10'1413.6
2016-Dec-02 10:34N 54°25' W 000°02'1413.9
2016-Dec-02 09:34N 54°37' W 000°14'4715.0
2016-Dec-02 06:26N 55°18' W 000°57'1415.8
2016-Dec-02 05:33N 55°29' W 001°10'1916.1
2016-Dec-02 04:21N 55°45' W 001°31'1316.1
2016-Dec-02 03:32N 55°54' W 001°48'1515.4
2016-Dec-02 02:34N 56°01' W 002°11'1515.3
2016-Dec-02 01:34N 56°06' W 002°37'1514.6
2016-Dec-02 00:34N 56°03' W 003°03'1110.9
2016-Dec-01 23:34N 56°01' W 003°22'10 0.3
2016-Nov-30 13:24N 56°02' W 003°39'7 8.1
2016-Nov-30 12:31N 56°01' W 003°27'1111.6
2016-Nov-30 11:34N 56°04' W 003°07'6 5.8
2016-Nov-30 10:34N 56°05' W 002°57'7 7.2
2016-Nov-30 09:34N 56°07' W 002°45'1312.6
2016-Nov-30 08:34N 56°06' W 002°22'1514.6
2016-Nov-30 07:34N 55°59' W 001°59'1614.7
2016-Nov-30 06:26N 55°48' W 001°37'2813.8
2016-Nov-30 04:26N 55°26' W 001°07'5613.8
2016-Nov-30 00:23N 54°39' W 000°16'1214.7
2016-Nov-29 23:34N 54°28' W 000°06'1515.5
2016-Nov-29 22:34N 54°15' E 000°08'1615.8
2016-Nov-29 21:34N 54°01' E 000°22'7014.0
2016-Nov-29 16:34N 53°03' E 001°27'1515.0
2016-Nov-29 15:33N 52°52' E 001°42'7314.5
2016-Nov-29 10:33N 51°46' E 002°35'1413.5
2016-Nov-29 09:33N 51°35' E 002°21'1312.8
2016-Nov-29 08:33N 51°25' E 002°09'1211.9
2016-Nov-29 07:33N 51°14' E 002°04'1211.7
2016-Nov-29 06:33N 51°07' E 001°49'1111.4
2016-Nov-29 05:33N 50°60' E 001°35'1211.8
2016-Nov-29 04:32N 50°49' E 001°27'6212.5
2016-Nov-28 23:33N 50°20' E 000°00'4214.0
2016-Nov-28 20:33N 50°08' W 001°03'1414.4
2016-Nov-28 19:34N 50°04' W 001°24'1514.6
2016-Nov-28 18:33N 50°00' W 001°46'1414.5
2016-Nov-28 17:33N 49°57' W 002°08'5012.3
2016-Nov-28 13:30N 49°38' W 003°20'4710.9
2016-Nov-28 09:11N 49°17' W 004°24'4011.1
2016-Nov-28 05:33N 48°54' W 005°15'1313.1
2016-Nov-28 04:33N 48°47' W 005°33'  
Track history (hours):
 
Tides and Currents Weather Stations Pressure Air Temp Water Temp Dewpoint Dewpoint Depression Visibility Wind Speed Wind Dir Waves Ship Positions

Betagas

Last reported at 2016-Dec-06 09:34 UTC. Time now 2016-Dec-06 10:14 UTC.
Position N 47°25' W 004°02'.

Length 114.6 m; beam 15.7 m; draft 7.4 m.

Type: Tanker. MMSI: 304050636.

Date/timePositionNaut miles runAvg speedWind from/ knotsBaromVisibWave heightAir tempDewpointWater temp
2016-Dec-06 09:34N 47°25' W 004°02'1514.9
2016-Dec-06 08:33N 47°18' W 003°42'1514.7
2016-Dec-06 07:34N 47°11' W 003°23'1514.6
2016-Dec-06 06:33N 47°06' W 003°03'1514.5
2016-Dec-06 05:33N 47°01' W 002°43'1313.5
2016-Dec-06 04:33N 47°06' W 002°24'1211.9
2016-Dec-06 03:33N 47°15' W 002°13'7 6.4
2016-Dec-06 02:30N 47°18' W 002°04'0 0.0
2016-Dec-06 01:33N 47°18' W 002°04'0 0.0
2016-Dec-06 00:33N 47°18' W 002°04'0 0.0
2016-Dec-05 23:33N 47°18' W 002°04'0 0.0
2016-Dec-05 22:33N 47°18' W 002°04'0 0.0
2016-Dec-05 21:33N 47°18' W 002°04'0 0.0
2016-Dec-05 20:33N 47°18' W 002°04'0 0.0
2016-Dec-05 18:33N 47°18' W 002°04'0 0.0
2016-Dec-05 17:33N 47°18' W 002°04'0 0.0
2016-Dec-05 16:33N 47°18' W 002°04'0 0.0
2016-Dec-05 15:33N 47°18' W 002°04'0 0.0
2016-Dec-05 14:30N 47°18' W 002°04'0 0.0
2016-Dec-05 13:30N 47°18' W 002°04'0 0.0
2016-Dec-05 12:30N 47°18' W 002°04'0 0.0
2016-Dec-05 11:27N 47°18' W 002°04'0 0.0
2016-Dec-05 10:33N 47°18' W 002°04'0 0.0
2016-Dec-05 09:30N 47°18' W 002°04'0 0.0
2016-Dec-05 08:33N 47°18' W 002°04'0 0.0
2016-Dec-05 07:33N 47°18' W 002°04'0 0.0
2016-Dec-05 06:24N 47°18' W 002°04'0 0.0
2016-Dec-05 05:33N 47°18' W 002°04'0 0.0
2016-Dec-05 04:33N 47°18' W 002°04'0 0.0
2016-Dec-05 03:30N 47°18' W 002°04'0 0.0
2016-Dec-05 02:33N 47°18' W 002°04'0 0.0
2016-Dec-05 01:33N 47°18' W 002°04'0 0.0
2016-Dec-05 00:33N 47°18' W 002°04'0 0.0
2016-Dec-04 23:33N 47°18' W 002°04'0 0.0
2016-Dec-04 22:33N 47°18' W 002°04'0 0.0
2016-Dec-04 21:30N 47°18' W 002°04'0 0.0
2016-Dec-04 20:30N 47°18' W 002°04'0 0.0
2016-Dec-04 19:33N 47°18' W 002°04'0 0.4
2016-Dec-04 18:33N 47°18' W 002°04'9 9.5
2016-Dec-04 17:34N 47°13' W 002°16'9 9.4
2016-Dec-04 16:33N 47°06' W 002°25'6 5.7
2016-Dec-04 15:33N 47°02' W 002°31'6 6.3
2016-Dec-04 14:33N 46°60' W 002°40'7 6.9
2016-Dec-04 13:33N 47°02' W 002°50'1110.7
2016-Dec-04 12:33N 47°06' W 003°04'1312.8
2016-Dec-04 11:33N 47°11' W 003°21'1312.7
2016-Dec-04 10:33N 47°17' W 003°38'1313.1
2016-Dec-04 09:33N 47°23' W 003°55'1313.0
2016-Dec-04 08:32N 47°29' W 004°13'1313.0
2016-Dec-04 07:30N 47°35' W 004°30'1213.0
2016-Dec-04 06:33N 47°42' W 004°46'1312.9
2016-Dec-04 05:33N 47°50' W 005°00'1312.9
2016-Dec-04 04:32N 48°00' W 005°12'1312.8
2016-Dec-04 03:32N 48°10' W 005°25'11210.9
2016-Dec-03 17:16N 49°42' W 003°47'1114.8
2016-Dec-03 16:33N 49°47' W 003°33'1615.9
2016-Dec-03 15:33N 49°55' W 003°12'1716.6
2016-Dec-03 14:33N 50°01' W 002°48'3216.0
2016-Dec-03 12:33N 50°09' W 001°59'1513.7
2016-Dec-03 11:27N 50°14' W 001°37'1112.6
2016-Dec-03 10:33N 50°17' W 001°20'3912.9
2016-Dec-03 07:33N 50°27' W 000°21'1515.0
2016-Dec-03 06:33N 50°31' E 000°02'1716.4
2016-Dec-03 05:30N 50°35' E 000°28'3115.9
2016-Dec-03 03:31N 50°52' E 001°10'1313.8
2016-Dec-03 02:33N 51°01' E 001°26'1313.3
2016-Dec-03 01:33N 51°11' E 001°40'1414.3
2016-Dec-03 00:33N 51°23' E 001°53'1716.6
2016-Dec-02 23:33N 51°37' E 002°07'3215.8
2016-Dec-02 21:33N 52°08' E 002°11'3716.8
2016-Dec-02 19:20N 52°45' E 001°60'1215.5
2016-Dec-02 18:33N 52°52' E 001°43'1515.0
2016-Dec-02 17:34N 53°02' E 001°26'7214.2
2016-Dec-02 12:28N 54°03' E 000°21'1213.6
2016-Dec-02 11:34N 54°14' E 000°10'1413.6
2016-Dec-02 10:34N 54°25' W 000°02'1413.9
2016-Dec-02 09:34N 54°37' W 000°14'4715.0
2016-Dec-02 06:26N 55°18' W 000°57'1415.8
2016-Dec-02 05:33N 55°29' W 001°10'1916.1
2016-Dec-02 04:21N 55°45' W 001°31'1316.1
2016-Dec-02 03:32N 55°54' W 001°48'1515.4
2016-Dec-02 02:34N 56°01' W 002°11'1515.3
2016-Dec-02 01:34N 56°06' W 002°37'1514.6
2016-Dec-02 00:34N 56°03' W 003°03'1110.9
2016-Dec-01 23:34N 56°01' W 003°22'10 0.3
2016-Nov-30 13:24N 56°02' W 003°39'7 8.1
2016-Nov-30 12:31N 56°01' W 003°27'1111.6
2016-Nov-30 11:34N 56°04' W 003°07'6 5.8
2016-Nov-30 10:34N 56°05' W 002°57'7 7.2
2016-Nov-30 09:34N 56°07' W 002°45'1312.6
2016-Nov-30 08:34N 56°06' W 002°22'1514.6
2016-Nov-30 07:34N 55°59' W 001°59'1614.7
2016-Nov-30 06:26N 55°48' W 001°37'2813.8
2016-Nov-30 04:26N 55°26' W 001°07'5613.8
2016-Nov-30 00:23N 54°39' W 000°16'1214.7
2016-Nov-29 23:34N 54°28' W 000°06'1515.5
2016-Nov-29 22:34N 54°15' E 000°08'1615.8
2016-Nov-29 21:34N 54°01' E 000°22'7014.0
2016-Nov-29 16:34N 53°03' E 001°27'1515.0
2016-Nov-29 15:33N 52°52' E 001°42'7314.5
2016-Nov-29 10:33N 51°46' E 002°35'1413.5
2016-Nov-29 09:33N 51°35' E 002°21'1312.8
2016-Nov-29 08:33N 51°25' E 002°09'1211.9
2016-Nov-29 07:33N 51°14' E 002°04'1211.7
2016-Nov-29 06:33N 51°07' E 001°49'1111.4
2016-Nov-29 05:33N 50°60' E 001°35'1211.8
2016-Nov-29 04:32N 50°49' E 001°27'6212.5
2016-Nov-28 23:33N 50°20' E 000°00'4214.0
2016-Nov-28 20:33N 50°08' W 001°03'1414.4
2016-Nov-28 19:34N 50°04' W 001°24'1514.6
2016-Nov-28 18:33N 50°00' W 001°46'1414.5
2016-Nov-28 17:33N 49°57' W 002°08'5012.3
2016-Nov-28 13:30N 49°38' W 003°20'4710.9
2016-Nov-28 09:11N 49°17' W 004°24'4011.1
2016-Nov-28 05:33N 48°54' W 005°15'1313.1
2016-Nov-28 04:33N 48°47' W 005°33'  

Dump ship's entire track history